Terminal Aerodrome Forecast
Issued by NWS Tallahassee, FL

Home | Current Version | Previous Version | Text Only | Print | Product List | Glossary On
Versions: 1 2 3 4 5 6 7 8 9 10 11 12
000
FTUS42 KTAE 301722
TAFTLH
TAF
KTLH 301722Z 3018/3118 11007KT P6SM SCT050
     FM310300 00000KT P6SM FEW060
     FM311000 09003KT 5SM BR SCT003
     FM311300 13004KT P6SM SCT035=

USA.gov is the U.S. government's official web portal to all federal, state and local government web resources and services.